createdAt,value
2018-11-25T00:01:09.952Z,39.00
2018-11-25T00:03:38.216Z,39.16
2018-11-25T00:06:06.868Z,39.14
2018-11-25T00:08:35.158Z,39.35
2018-11-25T00:11:03.447Z,39.28
2018-11-25T00:13:31.761Z,39.25
2018-11-25T00:15:59.998Z,39.43
2018-11-25T00:18:28.395Z,39.28
2018-11-25T00:20:56.701Z,39.43
2018-11-25T00:23:25.331Z,39.35
2018-11-25T00:25:54.206Z,39.54
2018-11-25T00:28:22.785Z,39.51
2018-11-25T00:30:51.389Z,39.30
2018-11-25T00:33:19.694Z,39.36
2018-11-25T00:35:48.248Z,39.52
2018-11-25T00:38:16.561Z,39.46
2018-11-25T00:40:44.781Z,39.33
2018-11-25T00:43:12.981Z,39.11
2018-11-25T00:45:41.208Z,39.27
2018-11-25T00:48:09.445Z,39.75
2018-11-25T00:50:38.014Z,39.79
2018-11-25T00:53:06.764Z,39.67
2018-11-25T00:55:34.982Z,39.61
2018-11-25T00:58:03.306Z,39.75
2018-11-25T01:00:31.893Z,39.18
2018-11-25T01:03:01.170Z,39.54
2018-11-25T01:05:29.500Z,39.60
2018-11-25T01:07:57.726Z,39.47
2018-11-25T01:10:25.937Z,39.58
2018-11-25T01:12:54.209Z,39.52
2018-11-25T01:15:22.436Z,39.64
2018-11-25T01:17:51.028Z,39.69
2018-11-25T01:20:19.749Z,39.71
2018-11-25T01:22:47.974Z,39.80
2018-11-25T01:25:16.190Z,39.19
2018-11-25T01:27:44.404Z,39.34
2018-11-25T01:30:16.341Z,39.06
2018-11-25T01:32:44.650Z,39.12
2018-11-25T01:35:13.189Z,39.08
2018-11-25T01:37:41.544Z,38.96
2018-11-25T01:40:10.577Z,38.90
2018-11-25T01:42:39.149Z,39.00
2018-11-25T01:45:08.325Z,39.00
2018-11-25T06:53:26.745Z,39.87
2018-11-25T06:55:54.953Z,39.12
2018-11-25T06:58:23.229Z,38.83
2018-11-25T07:00:51.446Z,39.33
2018-11-25T07:03:19.649Z,39.38
2018-11-25T07:05:47.965Z,39.04
2018-11-25T07:08:16.453Z,37.23
2018-11-25T07:10:44.720Z,37.24
2018-11-25T07:13:12.930Z,37.40
2018-11-25T07:15:41.342Z,37.43
2018-11-25T07:18:09.893Z,37.82
2018-11-25T07:20:38.118Z,37.61
2018-11-25T07:23:06.413Z,37.43
2018-11-25T07:25:34.669Z,37.60
2018-11-25T07:28:17.922Z,37.66
2018-11-25T07:30:32.174Z,37.85
2018-11-25T07:33:00.741Z,38.24
2018-11-25T07:35:29.164Z,38.32
2018-11-25T07:37:57.392Z,38.67
2018-11-25T07:40:25.887Z,38.90
2018-11-25T07:42:54.363Z,38.97
2018-11-25T07:45:29.974Z,39.18
2018-11-25T07:47:52.413Z,39.27
2018-11-25T07:50:20.622Z,39.60
2018-11-25T07:52:48.985Z,39.32
2018-11-25T07:55:17.837Z,39.77
2018-11-25T07:57:46.467Z,39.83
2018-11-25T08:00:15.634Z,39.56
2018-11-25T08:02:43.860Z,40.03
2018-11-25T08:05:12.621Z,40.25
2018-11-25T08:07:40.932Z,40.08
2018-11-25T08:10:12.690Z,40.35
2018-11-25T08:12:40.968Z,40.38
2018-11-25T08:15:10.062Z,40.43
2018-11-25T08:17:38.646Z,40.24
2018-11-25T08:20:10.643Z,40.99
2018-11-25T08:22:38.889Z,41.36
2018-11-25T08:25:08.125Z,41.49
2018-11-25T08:27:36.412Z,41.68
2018-11-25T08:30:05.698Z,41.81
2018-11-25T08:32:33.915Z,40.81
2018-11-25T08:35:03.392Z,41.19
2018-11-25T08:37:31.666Z,41.47
2018-11-25T08:39:59.910Z,39.57
2018-11-25T08:42:28.390Z,39.49
2018-11-25T08:44:56.668Z,39.32
2018-11-25T08:47:25.249Z,39.44
2018-11-25T08:49:53.550Z,39.08
2018-11-25T08:52:21.778Z,39.07
2018-11-25T08:54:50.098Z,39.03
2018-11-25T08:57:18.815Z,39.00
2018-11-25T08:59:47.133Z,38.86
2018-11-25T09:02:15.903Z,38.84
2018-11-25T09:04:44.101Z,38.66
2018-11-25T09:07:12.310Z,38.70
2018-11-25T09:09:40.662Z,38.67
2018-11-25T09:12:09.230Z,38.59
2018-11-25T09:14:37.805Z,38.66
2018-11-25T09:17:07.142Z,38.78
2018-11-25T09:19:35.366Z,38.63
2018-11-25T09:22:03.957Z,38.78
2018-11-25T09:24:32.269Z,38.37
2018-11-25T09:27:15.686Z,38.59
2018-11-25T09:29:43.989Z,38.52
2018-11-25T09:32:49.216Z,38.52
2018-11-25T09:35:20.712Z,38.51
2018-11-25T09:37:48.114Z,38.43
2018-11-25T09:40:24.364Z,38.44
2018-11-25T09:42:51.456Z,38.50
2018-11-25T09:45:20.066Z,38.58
2018-11-25T09:47:48.647Z,38.63
2018-11-25T09:50:20.800Z,38.59
2018-11-25T09:52:49.198Z,38.55
2018-11-25T09:55:18.000Z,38.60
2018-11-25T09:57:49.945Z,38.66
2018-11-25T10:00:23.470Z,38.67
2018-11-25T10:02:48.413Z,38.69
2018-11-25T10:05:16.739Z,38.73
2018-11-25T10:07:44.960Z,38.76
2018-11-25T10:10:13.936Z,38.80
2018-11-25T10:12:42.150Z,38.87
2018-11-25T10:15:20.174Z,38.89
2018-11-25T10:17:49.118Z,38.92
2018-11-25T10:20:17.858Z,38.97
2018-11-25T10:22:46.102Z,39.05
2018-11-25T10:25:14.832Z,39.07
2018-11-25T10:27:44.009Z,39.09
2018-11-25T10:30:29.574Z,39.13
2018-11-25T10:33:05.259Z,39.17
2018-11-25T10:35:33.461Z,39.23
2018-11-25T10:38:01.985Z,39.19
2018-11-25T10:40:32.749Z,39.17
2018-11-25T10:43:01.304Z,39.14
2018-11-25T10:45:29.641Z,39.05
2018-11-25T10:48:09.584Z,39.03
2018-11-25T10:50:37.989Z,39.03
2018-11-25T10:53:06.283Z,38.99
2018-11-25T10:55:34.854Z,38.99
2018-11-25T10:58:03.192Z,39.01
2018-11-25T11:00:49.631Z,39.00
2018-11-25T11:03:35.353Z,39.09
2018-11-25T11:06:21.158Z,39.07
2018-11-25T11:08:52.168Z,38.99
2018-11-25T11:11:20.446Z,39.04
2018-11-25T11:13:48.712Z,38.98
2018-11-25T11:16:17.018Z,39.00
2018-11-25T11:18:45.289Z,38.99
2018-11-25T11:21:13.576Z,38.93
2018-11-25T11:23:42.589Z,38.88
2018-11-25T11:26:27.103Z,38.88
2018-11-25T11:28:55.429Z,38.94
2018-11-25T11:31:23.648Z,38.94
2018-11-25T11:33:52.319Z,38.87
2018-11-25T11:36:20.832Z,38.88
2018-11-25T11:38:49.231Z,38.95
2018-11-25T11:41:18.487Z,38.88
2018-11-25T11:43:46.971Z,38.86
2018-11-25T11:46:17.208Z,38.89
2018-11-25T11:48:45.410Z,38.93
2018-11-25T11:51:13.961Z,38.99
2018-11-25T11:53:42.197Z,39.01
2018-11-25T11:56:10.406Z,39.02
2018-11-25T11:58:38.620Z,39.06
2018-11-25T12:01:07.390Z,39.10
2018-11-25T12:03:36.646Z,39.13
2018-11-25T12:06:05.053Z,39.18
2018-11-25T12:08:33.306Z,39.11
2018-11-25T12:11:01.569Z,39.11
2018-11-25T12:13:29.898Z,39.10
2018-11-25T12:15:58.274Z,39.01
2018-11-25T12:18:26.552Z,39.04
2018-11-25T12:20:54.850Z,39.06
2018-11-25T12:23:23.405Z,39.14
2018-11-25T12:25:51.974Z,38.93
2018-11-25T12:28:20.220Z,39.15
2018-11-25T12:30:48.853Z,39.06
2018-11-25T12:33:17.100Z,39.11
2018-11-25T12:38:14.941Z,39.10
2018-11-25T12:40:44.384Z,39.16
2018-11-25T12:43:12.709Z,39.17
2018-11-25T12:45:40.918Z,39.19
2018-11-25T12:48:10.014Z,39.23
2018-11-25T12:50:38.218Z,39.26
2018-11-25T12:53:06.556Z,39.33
2018-11-25T12:55:34.802Z,39.48
2018-11-25T12:58:03.122Z,39.33
2018-11-25T13:00:39.722Z,39.12
2018-11-25T13:03:08.970Z,39.01
2018-11-25T13:05:37.681Z,39.00
2018-11-25T13:08:06.218Z,39.00
2018-11-25T13:10:34.421Z,38.96
2018-11-25T13:13:02.637Z,39.38
2018-11-25T13:15:30.862Z,39.23
2018-11-25T13:17:59.405Z,39.34
2018-11-25T13:20:27.650Z,39.07
2018-11-25T13:22:55.964Z,38.51
2018-11-25T13:25:24.258Z,39.03
2018-11-25T13:27:52.566Z,39.43
2018-11-25T13:30:21.670Z,38.97
2018-11-25T13:32:50.399Z,39.25
2018-11-25T13:35:18.811Z,39.55
2018-11-25T13:37:47.269Z,39.46
2018-11-25T13:40:15.881Z,39.59
2018-11-25T13:42:44.329Z,39.62
2018-11-25T13:45:12.797Z,39.70
2018-11-25T13:47:41.158Z,39.46
2018-11-25T13:50:09.911Z,38.88
2018-11-25T13:52:42.910Z,39.25
2018-11-25T13:55:14.845Z,39.71
2018-11-25T13:57:47.201Z,39.66
2018-11-25T14:00:19.630Z,39.67
2018-11-25T14:02:47.874Z,39.57
2018-11-25T14:05:16.346Z,39.55
2018-11-25T14:07:44.533Z,39.53
2018-11-25T14:10:34.401Z,39.57
2018-11-25T14:13:03.577Z,39.58
2018-11-25T14:15:31.886Z,39.59
2018-11-25T14:18:00.410Z,39.56
2018-11-25T14:20:30.957Z,39.59
2018-11-25T14:22:59.741Z,39.57
2018-11-25T14:25:28.558Z,39.59
2018-11-25T14:28:01.186Z,39.59
2018-11-25T14:30:30.017Z,39.59
2018-11-25T14:33:00.717Z,39.58
2018-11-25T14:35:29.544Z,39.57
2018-11-25T14:37:58.015Z,39.55
2018-11-25T14:40:26.369Z,39.53
2018-11-25T14:42:54.647Z,39.50
2018-11-25T14:45:23.774Z,39.50
2018-11-25T14:47:54.251Z,39.56
2018-11-25T14:50:22.465Z,39.60
2018-11-25T14:52:51.236Z,39.62
2018-11-25T14:55:19.838Z,39.65
2018-11-25T14:57:48.816Z,39.43
2018-11-25T15:00:20.273Z,39.49
2018-11-25T15:02:55.337Z,39.14
2018-11-25T15:05:42.593Z,39.55
2018-11-25T15:08:11.578Z,39.52
2018-11-25T15:10:39.878Z,39.42
2018-11-25T15:13:08.498Z,39.56
2018-11-25T15:15:37.213Z,39.66
2018-11-25T15:18:05.602Z,39.68
2018-11-25T15:20:33.991Z,39.66
2018-11-25T15:23:03.069Z,39.63
2018-11-25T15:25:32.208Z,39.61
2018-11-25T15:28:00.405Z,39.58
2018-11-25T15:30:28.647Z,39.42
2018-11-25T15:32:56.890Z,39.53
2018-11-25T15:35:25.196Z,39.58
2018-11-25T15:37:53.832Z,39.50
2018-11-25T15:40:22.982Z,39.60
2018-11-25T15:42:54.191Z,39.62
2018-11-25T15:45:22.441Z,39.56
2018-11-25T15:47:54.883Z,39.54
2018-11-25T15:50:24.070Z,39.55
2018-11-25T15:52:52.308Z,39.55
2018-11-25T15:55:20.706Z,39.58
2018-11-25T15:57:49.263Z,39.58
2018-11-25T16:00:21.218Z,39.59
2018-11-25T16:02:50.537Z,39.60
2018-11-25T16:05:23.613Z,39.61
2018-11-25T16:08:01.224Z,39.60
2018-11-25T16:10:32.132Z,39.57
2018-11-25T16:13:00.782Z,39.57
2018-11-25T16:15:29.187Z,39.60
2018-11-25T16:17:57.783Z,39.63
2018-11-25T16:20:26.894Z,39.63
2018-11-25T16:22:55.832Z,39.64
2018-11-25T16:25:46.329Z,39.62
2018-11-25T16:28:23.817Z,39.64
2018-11-25T16:30:52.830Z,39.65
2018-11-25T16:33:23.985Z,39.49
2018-11-25T16:35:52.296Z,39.31
2018-11-25T16:38:28.341Z,39.32
2018-11-25T16:40:56.608Z,39.29
2018-11-25T16:43:24.805Z,39.50
2018-11-25T16:45:53.288Z,39.58
2018-11-25T16:48:21.542Z,39.61
2018-11-25T16:50:49.766Z,39.56
2018-11-25T16:53:17.996Z,39.58
2018-11-25T16:55:46.241Z,39.58
2018-11-25T16:58:14.525Z,39.05
2018-11-25T17:00:42.736Z,39.43
2018-11-25T17:03:11.227Z,39.46
2018-11-25T17:05:40.531Z,39.48
2018-11-25T17:08:11.216Z,39.47
2018-11-25T17:10:44.861Z,39.49
2018-11-25T17:13:27.144Z,39.46
2018-11-25T17:15:56.389Z,39.44
2018-11-25T17:19:02.781Z,39.46
2018-11-25T17:21:21.833Z,39.46
2018-11-25T17:23:50.134Z,39.44
2018-11-25T17:26:18.333Z,39.42
2018-11-25T17:28:46.585Z,39.44
2018-11-25T17:31:14.897Z,39.45
2018-11-25T17:33:46.182Z,39.46
2018-11-25T17:36:14.860Z,39.48
2018-11-25T17:41:47.673Z,39.47
2018-11-25T17:44:15.966Z,39.51
2018-11-25T17:46:44.257Z,39.29
2018-11-25T17:49:12.822Z,39.47
2018-11-25T17:51:41.526Z,39.45
2018-11-25T17:54:09.973Z,39.45
2018-11-25T17:56:38.869Z,39.42
2018-11-25T17:59:07.426Z,39.44
2018-11-25T18:04:44.980Z,39.31
2018-11-25T18:07:13.186Z,38.58
2018-11-25T18:09:41.735Z,39.21
2018-11-25T18:12:09.988Z,39.15
2018-11-25T18:14:38.671Z,39.19
2018-11-25T18:17:07.149Z,39.38
2018-11-25T18:19:35.381Z,39.34
2018-11-25T18:22:11.834Z,39.34
2018-11-25T18:24:40.147Z,39.33
2018-11-25T18:27:08.629Z,39.23
2018-11-25T18:29:37.358Z,39.22
2018-11-25T18:32:06.251Z,39.15
2018-11-25T18:34:34.472Z,39.12
2018-11-25T18:37:02.726Z,39.16
2018-11-25T18:39:30.939Z,39.22
2018-11-25T18:41:59.379Z,39.30
2018-11-25T18:44:33.394Z,39.33
2018-11-25T18:47:02.178Z,39.31
2018-11-25T18:49:30.915Z,39.26
2018-11-25T18:52:05.077Z,39.30
2018-11-25T18:54:28.270Z,39.30
2018-11-25T18:56:56.578Z,39.29
2018-11-25T18:59:25.153Z,39.31
2018-11-25T19:02:00.650Z,39.31
2018-11-25T19:04:29.829Z,39.33
2018-11-25T19:06:58.313Z,39.32
2018-11-25T19:09:26.972Z,39.31
2018-11-25T19:11:55.294Z,39.28
2018-11-25T19:14:23.532Z,39.29
2018-11-25T19:16:51.899Z,39.30
2018-11-25T19:19:20.624Z,39.29
2018-11-25T19:21:49.190Z,39.22
2018-11-25T19:24:17.655Z,38.89
2018-11-25T19:26:46.303Z,38.82
2018-11-25T19:29:15.290Z,38.78
2018-11-25T19:31:43.856Z,38.80
2018-11-25T19:34:12.694Z,38.73
2018-11-25T19:36:41.404Z,38.75
2018-11-25T19:39:11.659Z,38.77
2018-11-25T19:41:40.513Z,38.83
2018-11-25T19:44:09.057Z,38.84
2018-11-25T19:46:37.582Z,39.08
2018-11-25T19:49:06.422Z,38.96
2018-11-25T19:51:34.964Z,38.78
2018-11-25T19:54:03.737Z,38.62
2018-11-25T19:56:32.280Z,38.55
2018-11-25T19:59:01.160Z,38.53
2018-11-25T20:01:30.214Z,38.44
2018-11-25T20:03:58.761Z,38.78
2018-11-25T20:06:27.359Z,38.46
2018-11-25T20:08:55.911Z,38.62
2018-11-25T20:11:24.610Z,38.50
2018-11-25T20:13:53.149Z,38.52
2018-11-25T20:16:39.186Z,38.58
2018-11-25T20:19:07.842Z,38.58
2018-11-25T20:21:53.464Z,38.58
2018-11-25T20:24:21.859Z,38.64
2018-11-25T20:27:07.387Z,38.62
2018-11-25T20:29:36.518Z,38.60
2018-11-25T20:32:22.077Z,38.62
2018-11-25T20:34:50.564Z,38.65
2018-11-25T20:37:26.735Z,38.71
2018-11-25T20:39:50.215Z,38.69
2018-11-25T20:42:18.435Z,38.69
2018-11-25T20:44:46.775Z,38.86
2018-11-25T20:47:15.327Z,38.76
2018-11-25T20:49:43.738Z,39.02
2018-11-25T20:52:29.448Z,38.72
2018-11-25T20:54:57.707Z,38.97
2018-11-25T20:57:25.941Z,38.54
2018-11-25T20:59:54.233Z,38.33
2018-11-25T21:02:28.926Z,38.12
2018-11-25T21:04:51.704Z,37.99
2018-11-25T21:07:20.244Z,38.30
2018-11-25T21:09:48.849Z,38.12
2018-11-25T21:12:17.148Z,37.88
2018-11-25T21:14:45.730Z,37.70
2018-11-25T21:17:14.059Z,37.59
2018-11-25T21:19:42.287Z,37.51
2018-11-25T21:22:10.588Z,37.53
2018-11-25T21:24:38.985Z,37.47
2018-11-25T21:27:07.245Z,37.42
2018-11-25T21:29:35.538Z,37.40
2018-11-25T21:32:03.999Z,37.38
2018-11-25T21:34:32.360Z,37.39
2018-11-25T21:37:00.883Z,37.38
2018-11-25T21:39:29.532Z,37.32
2018-11-25T21:41:58.525Z,37.30
2018-11-25T21:44:26.838Z,37.31
2018-11-25T21:46:55.112Z,37.33
2018-11-25T21:49:23.974Z,37.26
2018-11-25T21:51:52.269Z,37.22
2018-11-25T21:54:20.542Z,37.30
2018-11-25T21:56:49.022Z,37.20
2018-11-25T21:59:17.281Z,37.19
2018-11-25T22:01:45.565Z,36.98
2018-11-25T22:04:15.013Z,37.15
2018-11-25T22:06:43.211Z,37.10
2018-11-25T22:09:11.903Z,37.17
2018-11-25T22:11:40.150Z,37.19
2018-11-25T22:14:08.383Z,37.27
2018-11-25T22:16:36.940Z,37.21
2018-11-25T22:19:06.038Z,37.34
2018-11-25T22:21:34.578Z,37.65
2018-11-25T22:24:02.793Z,37.79
2018-11-25T22:26:31.264Z,37.68
2018-11-25T22:28:59.573Z,37.71
2018-11-25T22:31:28.121Z,37.97
2018-11-25T22:33:56.869Z,37.75
2018-11-25T22:36:25.186Z,37.59
2018-11-25T22:38:53.469Z,37.02
2018-11-25T22:41:21.778Z,37.37
2018-11-25T22:43:49.997Z,37.71
2018-11-25T22:46:18.222Z,37.68
2018-11-25T22:48:46.761Z,37.45
2018-11-25T22:51:15.010Z,37.75
2018-11-25T22:53:43.262Z,37.94
2018-11-25T22:56:11.469Z,37.02
2018-11-25T22:58:39.718Z,37.53
2018-11-25T23:01:07.925Z,38.12
2018-11-25T23:03:36.184Z,38.52
2018-11-25T23:06:22.171Z,38.13
2018-11-25T23:08:50.854Z,38.33
2018-11-25T23:11:19.064Z,37.49
2018-11-25T23:13:47.269Z,38.37
2018-11-25T23:16:15.518Z,38.75
2018-11-25T23:18:43.728Z,37.87
2018-11-25T23:21:12.190Z,38.66
2018-11-25T23:23:40.424Z,38.31
2018-11-25T23:26:08.960Z,38.32
2018-11-25T23:28:37.448Z,38.43
2018-11-25T23:31:06.111Z,38.69
2018-11-25T23:33:34.698Z,38.00
2018-11-25T23:36:02.938Z,38.92
2018-11-25T23:38:31.381Z,38.58
2018-11-25T23:41:00.090Z,38.49
2018-11-25T23:43:28.405Z,39.07
2018-11-25T23:45:56.617Z,37.89
2018-11-25T23:48:25.093Z,38.91
2018-11-25T23:50:53.307Z,38.44
2018-11-25T23:53:21.537Z,39.03
2018-11-25T23:55:49.857Z,38.87
2018-11-25T23:58:18.309Z,39.09
